Moores Crossing, Texas
Current Conditions -  °F | °C
As of 1:53 AM on Friday 31 Oct 2014 (Local Time) from KAUS Reporting Station
Overcast Overcast  
Wind Chill: 65°   Ceiling: 6500
Heat Index: 65°   Visibility: 10mi
Dew Point: 59°   Wind: 3mph
Humidity: 81%   Direction: 340°NNW
Pressure: 30.13"   Gusts: NA
Location:  30.1003°N, 97.6725°W
Report Text: KAUS 310653Z 34003KT 10SM BKN065 BKN075 OVC095 18/15 A3013 RMK AO2 SLP196 OCNL LTG DSNT SW T01830150
Loading
Personal Weather Stations






























Interactive Weather Map
Tropical Storm Tracking
New forecast layout! Learn more

10-Day Weather Forecast

Advertisements
Track Severe Weather on mobile